sensor_id;sensor_type;location;lat;lon;timestamp;P1;durP1;ratioP1;P2;durP2;ratioP2
18806;SDS011;9531;52.030;4.380;2022-08-18T00:02:16;3.08;;;1.55;;
18806;SDS011;9531;52.030;4.380;2022-08-18T00:04:47;5.43;;;1.85;;
18806;SDS011;9531;52.030;4.380;2022-08-18T00:07:18;2.65;;;1.27;;
18806;SDS011;9531;52.030;4.380;2022-08-18T00:09:49;1.55;;;1.42;;
18806;SDS011;9531;52.030;4.380;2022-08-18T00:12:17;2.58;;;1.52;;
18806;SDS011;9531;52.030;4.380;2022-08-18T00:14:46;1.40;;;1.30;;
18806;SDS011;9531;52.030;4.380;2022-08-18T00:17:14;1.60;;;1.27;;
18806;SDS011;9531;52.030;4.380;2022-08-18T00:19:41;1.65;;;1.35;;
18806;SDS011;9531;52.030;4.380;2022-08-18T00:22:09;1.88;;;1.40;;
18806;SDS011;9531;52.030;4.380;2022-08-18T00:24:39;1.60;;;1.45;;
18806;SDS011;9531;52.030;4.380;2022-08-18T00:27:08;2.10;;;1.60;;
18806;SDS011;9531;52.030;4.380;2022-08-18T00:29:36;1.40;;;1.30;;
18806;SDS011;9531;52.030;4.380;2022-08-18T00:32:10;1.33;;;1.15;;
18806;SDS011;9531;52.030;4.380;2022-08-18T00:34:38;1.80;;;1.70;;
18806;SDS011;9531;52.030;4.380;2022-08-18T00:37:04;1.42;;;1.30;;
18806;SDS011;9531;52.030;4.380;2022-08-18T00:39:31;1.77;;;1.35;;
18806;SDS011;9531;52.030;4.380;2022-08-18T00:42:11;4.10;;;1.80;;
18806;SDS011;9531;52.030;4.380;2022-08-18T00:44:40;1.98;;;1.52;;
18806;SDS011;9531;52.030;4.380;2022-08-18T00:47:06;2.55;;;1.63;;
18806;SDS011;9531;52.030;4.380;2022-08-18T00:49:34;2.20;;;2.00;;
18806;SDS011;9531;52.030;4.380;2022-08-18T00:52:03;2.65;;;1.60;;
18806;SDS011;9531;52.030;4.380;2022-08-18T00:54:30;1.48;;;1.30;;
18806;SDS011;9531;52.030;4.380;2022-08-18T00:57:00;2.75;;;1.60;;
18806;SDS011;9531;52.030;4.380;2022-08-18T00:59:32;1.08;;;1.08;;
18806;SDS011;9531;52.030;4.380;2022-08-18T01:02:04;2.05;;;1.00;;
18806;SDS011;9531;52.030;4.380;2022-08-18T01:04:35;2.15;;;1.75;;
18806;SDS011;9531;52.030;4.380;2022-08-18T01:07:07;1.75;;;1.58;;
18806;SDS011;9531;52.030;4.380;2022-08-18T01:09:37;1.98;;;1.65;;
18806;SDS011;9531;52.030;4.380;2022-08-18T01:12:05;1.52;;;1.42;;
18806;SDS011;9531;52.030;4.380;2022-08-18T01:14:36;1.98;;;1.50;;
18806;SDS011;9531;52.030;4.380;2022-08-18T01:17:03;1.45;;;1.35;;
18806;SDS011;9531;52.030;4.380;2022-08-18T01:19:47;1.40;;;1.30;;
18806;SDS011;9531;52.030;4.380;2022-08-18T01:22:36;2.30;;;1.38;;
18806;SDS011;9531;52.030;4.380;2022-08-18T01:25:10;1.73;;;1.52;;
18806;SDS011;9531;52.030;4.380;2022-08-18T01:27:54;2.88;;;1.42;;
18806;SDS011;9531;52.030;4.380;2022-08-18T01:30:22;1.05;;;1.02;;
18806;SDS011;9531;52.030;4.380;2022-08-18T01:32:50;1.48;;;1.38;;
18806;SDS011;9531;52.030;4.380;2022-08-18T01:35:18;1.70;;;1.60;;
18806;SDS011;9531;52.030;4.380;2022-08-18T01:37:49;1.30;;;1.15;;
18806;SDS011;9531;52.030;4.380;2022-08-18T01:40:20;1.80;;;1.70;;
18806;SDS011;9531;52.030;4.380;2022-08-18T01:42:49;1.52;;;1.20;;
18806;SDS011;9531;52.030;4.380;2022-08-18T01:45:18;1.50;;;1.40;;
18806;SDS011;9531;52.030;4.380;2022-08-18T01:47:47;2.83;;;1.90;;
18806;SDS011;9531;52.030;4.380;2022-08-18T01:50:15;1.48;;;1.35;;
18806;SDS011;9531;52.030;4.380;2022-08-18T01:52:42;1.75;;;1.40;;
18806;SDS011;9531;52.030;4.380;2022-08-18T01:55:09;1.20;;;1.13;;
18806;SDS011;9531;52.030;4.380;2022-08-18T01:57:38;1.17;;;1.08;;
18806;SDS011;9531;52.030;4.380;2022-08-18T02:00:07;0.88;;;0.88;;
18806;SDS011;9531;52.030;4.380;2022-08-18T02:02:35;1.45;;;1.20;;
18806;SDS011;9531;52.030;4.380;2022-08-18T02:05:04;2.08;;;1.45;;
18806;SDS011;9531;52.030;4.380;2022-08-18T02:07:34;0.93;;;0.93;;
18806;SDS011;9531;52.030;4.380;2022-08-18T02:10:03;1.60;;;1.20;;
18806;SDS011;9531;52.030;4.380;2022-08-18T02:12:31;1.58;;;1.25;;
18806;SDS011;9531;52.030;4.380;2022-08-18T02:15:00;1.50;;;1.40;;
18806;SDS011;9531;52.030;4.380;2022-08-18T02:17:28;1.50;;;1.40;;
18806;SDS011;9531;52.030;4.380;2022-08-18T02:20:04;1.17;;;1.10;;
18806;SDS011;9531;52.030;4.380;2022-08-18T02:22:32;1.88;;;1.55;;
18806;SDS011;9531;52.030;4.380;2022-08-18T02:25:02;2.03;;;1.23;;
18806;SDS011;9531;52.030;4.380;2022-08-18T02:27:29;1.23;;;1.13;;
18806;SDS011;9531;52.030;4.380;2022-08-18T02:29:57;1.60;;;1.50;;
18806;SDS011;9531;52.030;4.380;2022-08-18T02:32:26;1.48;;;1.38;;
18806;SDS011;9531;52.030;4.380;2022-08-18T02:34:53;1.60;;;1.05;;
18806;SDS011;9531;52.030;4.380;2022-08-18T02:37:20;2.35;;;1.33;;
18806;SDS011;9531;52.030;4.380;2022-08-18T02:39:47;1.70;;;1.60;;
18806;SDS011;9531;52.030;4.380;2022-08-18T02:42:14;1.20;;;1.10;;
18806;SDS011;9531;52.030;4.380;2022-08-18T02:44:41;1.35;;;1.15;;
18806;SDS011;9531;52.030;4.380;2022-08-18T02:47:08;1.13;;;1.02;;
18806;SDS011;9531;52.030;4.380;2022-08-18T02:49:36;1.50;;;1.05;;
18806;SDS011;9531;52.030;4.380;2022-08-18T02:52:09;2.38;;;1.15;;
18806;SDS011;9531;52.030;4.380;2022-08-18T02:54:36;1.30;;;1.20;;
18806;SDS011;9531;52.030;4.380;2022-08-18T02:57:05;1.73;;;1.50;;
18806;SDS011;9531;52.030;4.380;2022-08-18T02:59:41;1.85;;;1.70;;
18806;SDS011;9531;52.030;4.380;2022-08-18T03:02:09;2.55;;;1.30;;
18806;SDS011;9531;52.030;4.380;2022-08-18T03:04:40;1.30;;;1.20;;
18806;SDS011;9531;52.030;4.380;2022-08-18T03:07:08;1.52;;;1.42;;
18806;SDS011;9531;52.030;4.380;2022-08-18T03:09:35;1.52;;;1.30;;
18806;SDS011;9531;52.030;4.380;2022-08-18T03:14:32;1.88;;;1.58;;
18806;SDS011;9531;52.030;4.380;2022-08-18T03:17:03;1.50;;;1.40;;
18806;SDS011;9531;52.030;4.380;2022-08-18T03:19:34;2.13;;;1.92;;
18806;SDS011;9531;52.030;4.380;2022-08-18T03:22:03;1.60;;;1.50;;
18806;SDS011;9531;52.030;4.380;2022-08-18T03:24:33;1.85;;;1.75;;
18806;SDS011;9531;52.030;4.380;2022-08-18T03:27:02;1.92;;;1.83;;
18806;SDS011;9531;52.030;4.380;2022-08-18T03:29:32;4.10;;;1.35;;
18806;SDS011;9531;52.030;4.380;2022-08-18T03:32:01;2.10;;;1.58;;
18806;SDS011;9531;52.030;4.380;2022-08-18T03:34:30;3.55;;;2.08;;
18806;SDS011;9531;52.030;4.380;2022-08-18T03:36:58;1.50;;;1.40;;
18806;SDS011;9531;52.030;4.380;2022-08-18T03:39:27;1.58;;;1.48;;
18806;SDS011;9531;52.030;4.380;2022-08-18T03:41:54;1.73;;;1.63;;
18806;SDS011;9531;52.030;4.380;2022-08-18T03:44:22;1.40;;;1.30;;
18806;SDS011;9531;52.030;4.380;2022-08-18T03:46:50;1.50;;;1.40;;
18806;SDS011;9531;52.030;4.380;2022-08-18T03:49:17;1.40;;;1.30;;
18806;SDS011;9531;52.030;4.380;2022-08-18T03:51:45;1.30;;;1.20;;
18806;SDS011;9531;52.030;4.380;2022-08-18T03:54:12;1.35;;;1.17;;
18806;SDS011;9531;52.030;4.380;2022-08-18T03:56:42;1.42;;;1.33;;
18806;SDS011;9531;52.030;4.380;2022-08-18T03:59:10;2.00;;;1.33;;
18806;SDS011;9531;52.030;4.380;2022-08-18T04:01:41;1.40;;;1.30;;
18806;SDS011;9531;52.030;4.380;2022-08-18T04:04:10;1.48;;;1.38;;
18806;SDS011;9531;52.030;4.380;2022-08-18T04:06:40;2.08;;;1.48;;
18806;SDS011;9531;52.030;4.380;2022-08-18T04:09:09;1.50;;;1.40;;
18806;SDS011;9531;52.030;4.380;2022-08-18T04:11:39;1.63;;;1.48;;
18806;SDS011;9531;52.030;4.380;2022-08-18T04:14:09;3.25;;;2.35;;
18806;SDS011;9531;52.030;4.380;2022-08-18T04:16:38;2.60;;;2.35;;
18806;SDS011;9531;52.030;4.380;2022-08-18T04:19:06;1.35;;;1.25;;
18806;SDS011;9531;52.030;4.380;2022-08-18T04:21:35;2.85;;;2.58;;
18806;SDS011;9531;52.030;4.380;2022-08-18T04:24:05;1.88;;;1.77;;
18806;SDS011;9531;52.030;4.380;2022-08-18T04:26:33;1.55;;;1.45;;
18806;SDS011;9531;52.030;4.380;2022-08-18T04:29:03;4.43;;;1.63;;
18806;SDS011;9531;52.030;4.380;2022-08-18T04:31:31;1.48;;;1.38;;
18806;SDS011;9531;52.030;4.380;2022-08-18T04:33:59;3.03;;;2.00;;
18806;SDS011;9531;52.030;4.380;2022-08-18T04:36:27;1.52;;;1.42;;
18806;SDS011;9531;52.030;4.380;2022-08-18T04:38:56;1.95;;;1.75;;
18806;SDS011;9531;52.030;4.380;2022-08-18T04:41:24;1.73;;;1.63;;
18806;SDS011;9531;52.030;4.380;2022-08-18T04:43:53;1.70;;;1.60;;
18806;SDS011;9531;52.030;4.380;2022-08-18T04:46:23;1.50;;;1.40;;
18806;SDS011;9531;52.030;4.380;2022-08-18T04:48:50;2.40;;;1.63;;
18806;SDS011;9531;52.030;4.380;2022-08-18T04:51:24;2.10;;;1.75;;
18806;SDS011;9531;52.030;4.380;2022-08-18T04:53:53;1.33;;;1.20;;
18806;SDS011;9531;52.030;4.380;2022-08-18T04:56:20;2.85;;;2.00;;
18806;SDS011;9531;52.030;4.380;2022-08-18T04:58:51;1.55;;;1.45;;
18806;SDS011;9531;52.030;4.380;2022-08-18T05:01:19;1.27;;;1.17;;
18806;SDS011;9531;52.030;4.380;2022-08-18T05:03:52;2.30;;;2.10;;
18806;SDS011;9531;52.030;4.380;2022-08-18T05:06:20;1.60;;;1.50;;
18806;SDS011;9531;52.030;4.380;2022-08-18T05:08:51;1.45;;;1.25;;
18806;SDS011;9531;52.030;4.380;2022-08-18T05:11:21;1.80;;;1.70;;
18806;SDS011;9531;52.030;4.380;2022-08-18T05:13:49;2.58;;;1.92;;
18806;SDS011;9531;52.030;4.380;2022-08-18T05:16:17;1.67;;;1.55;;
18806;SDS011;9531;52.030;4.380;2022-08-18T05:18:44;1.55;;;1.45;;
18806;SDS011;9531;52.030;4.380;2022-08-18T05:21:12;1.75;;;1.48;;
18806;SDS011;9531;52.030;4.380;2022-08-18T05:23:40;2.95;;;2.10;;
18806;SDS011;9531;52.030;4.380;2022-08-18T05:26:07;2.28;;;2.08;;
18806;SDS011;9531;52.030;4.380;2022-08-18T05:28:35;1.92;;;1.73;;
18806;SDS011;9531;52.030;4.380;2022-08-18T05:31:05;2.40;;;2.15;;
18806;SDS011;9531;52.030;4.380;2022-08-18T05:33:34;1.73;;;1.58;;
18806;SDS011;9531;52.030;4.380;2022-08-18T05:36:03;2.20;;;1.70;;
18806;SDS011;9531;52.030;4.380;2022-08-18T05:38:44;2.05;;;1.60;;
18806;SDS011;9531;52.030;4.380;2022-08-18T05:41:19;3.03;;;1.80;;
18806;SDS011;9531;52.030;4.380;2022-08-18T05:43:51;1.60;;;1.50;;
18806;SDS011;9531;52.030;4.380;2022-08-18T05:46:20;2.15;;;1.98;;
18806;SDS011;9531;52.030;4.380;2022-08-18T05:48:52;2.92;;;2.45;;
18806;SDS011;9531;52.030;4.380;2022-08-18T05:51:22;2.72;;;2.53;;
18806;SDS011;9531;52.030;4.380;2022-08-18T05:53:55;3.75;;;3.30;;
18806;SDS011;9531;52.030;4.380;2022-08-18T05:56:39;3.28;;;2.97;;
18806;SDS011;9531;52.030;4.380;2022-08-18T05:59:15;3.20;;;2.80;;
18806;SDS011;9531;52.030;4.380;2022-08-18T06:01:49;4.80;;;3.03;;
18806;SDS011;9531;52.030;4.380;2022-08-18T06:04:29;2.97;;;2.78;;
18806;SDS011;9531;52.030;4.380;2022-08-18T06:07:06;4.00;;;3.05;;
18806;SDS011;9531;52.030;4.380;2022-08-18T06:09:39;3.10;;;2.65;;
18806;SDS011;9531;52.030;4.380;2022-08-18T06:12:15;2.53;;;1.88;;
18806;SDS011;9531;52.030;4.380;2022-08-18T06:15:02;2.38;;;2.17;;
18806;SDS011;9531;52.030;4.380;2022-08-18T06:17:59;2.22;;;1.80;;
18806;SDS011;9531;52.030;4.380;2022-08-18T06:20:55;1.70;;;1.60;;
18806;SDS011;9531;52.030;4.380;2022-08-18T06:23:47;2.00;;;1.90;;
18806;SDS011;9531;52.030;4.380;2022-08-18T06:26:22;2.40;;;1.75;;
18806;SDS011;9531;52.030;4.380;2022-08-18T06:29:02;1.92;;;1.73;;
18806;SDS011;9531;52.030;4.380;2022-08-18T06:31:50;3.63;;;1.92;;
18806;SDS011;9531;52.030;4.380;2022-08-18T06:34:36;1.58;;;1.48;;
18806;SDS011;9531;52.030;4.380;2022-08-18T06:37:15;1.42;;;1.33;;
18806;SDS011;9531;52.030;4.380;2022-08-18T06:39:49;1.45;;;1.35;;
18806;SDS011;9531;52.030;4.380;2022-08-18T06:42:20;4.38;;;1.40;;
18806;SDS011;9531;52.030;4.380;2022-08-18T06:44:56;1.08;;;1.00;;
18806;SDS011;9531;52.030;4.380;2022-08-18T06:47:29;1.35;;;0.90;;
18806;SDS011;9531;52.030;4.380;2022-08-18T06:50:03;1.48;;;1.38;;
18806;SDS011;9531;52.030;4.380;2022-08-18T06:52:33;3.10;;;1.20;;
18806;SDS011;9531;52.030;4.380;2022-08-18T06:55:05;0.80;;;0.80;;
18806;SDS011;9531;52.030;4.380;2022-08-18T06:57:37;1.13;;;1.00;;
18806;SDS011;9531;52.030;4.380;2022-08-18T07:00:07;0.65;;;0.60;;
18806;SDS011;9531;52.030;4.380;2022-08-18T07:02:49;1.23;;;1.05;;
18806;SDS011;9531;52.030;4.380;2022-08-18T07:05:23;1.38;;;1.10;;
18806;SDS011;9531;52.030;4.380;2022-08-18T07:08:01;0.88;;;0.85;;
18806;SDS011;9531;52.030;4.380;2022-08-18T07:10:36;1.27;;;0.93;;
18806;SDS011;9531;52.030;4.380;2022-08-18T07:13:15;0.70;;;0.70;;
18806;SDS011;9531;52.030;4.380;2022-08-18T07:15:47;1.25;;;0.90;;
18806;SDS011;9531;52.030;4.380;2022-08-18T07:18:20;1.10;;;1.00;;
18806;SDS011;9531;52.030;4.380;2022-08-18T07:20:49;1.92;;;1.25;;
18806;SDS011;9531;52.030;4.380;2022-08-18T07:23:23;1.85;;;1.05;;
18806;SDS011;9531;52.030;4.380;2022-08-18T07:25:58;0.90;;;0.80;;
18806;SDS011;9531;52.030;4.380;2022-08-18T07:28:35;1.00;;;0.95;;
18806;SDS011;9531;52.030;4.380;2022-08-18T07:31:11;0.85;;;0.85;;
18806;SDS011;9531;52.030;4.380;2022-08-18T07:33:45;2.58;;;1.52;;
18806;SDS011;9531;52.030;4.380;2022-08-18T07:36:16;0.70;;;0.70;;
18806;SDS011;9531;52.030;4.380;2022-08-18T07:38:47;0.90;;;0.90;;
18806;SDS011;9531;52.030;4.380;2022-08-18T07:41:22;1.77;;;0.93;;
18806;SDS011;9531;52.030;4.380;2022-08-18T07:43:56;3.50;;;0.93;;
18806;SDS011;9531;52.030;4.380;2022-08-18T07:46:33;0.85;;;0.70;;
18806;SDS011;9531;52.030;4.380;2022-08-18T07:49:04;1.02;;;0.80;;
18806;SDS011;9531;52.030;4.380;2022-08-18T07:51:39;1.05;;;0.90;;
18806;SDS011;9531;52.030;4.380;2022-08-18T07:54:13;0.75;;;0.75;;
18806;SDS011;9531;52.030;4.380;2022-08-18T07:56:49;1.70;;;1.02;;
18806;SDS011;9531;52.030;4.380;2022-08-18T07:59:25;1.55;;;0.63;;
18806;SDS011;9531;52.030;4.380;2022-08-18T08:02:03;1.13;;;0.65;;
18806;SDS011;9531;52.030;4.380;2022-08-18T08:04:43;0.70;;;0.70;;
18806;SDS011;9531;52.030;4.380;2022-08-18T08:07:25;0.50;;;0.50;;
18806;SDS011;9531;52.030;4.380;2022-08-18T08:09:58;1.33;;;0.70;;
18806;SDS011;9531;52.030;4.380;2022-08-18T08:12:36;0.70;;;0.70;;
18806;SDS011;9531;52.030;4.380;2022-08-18T08:15:11;0.73;;;0.63;;
18806;SDS011;9531;52.030;4.380;2022-08-18T08:17:51;0.68;;;0.57;;
18806;SDS011;9531;52.030;4.380;2022-08-18T08:20:28;0.60;;;0.60;;
18806;SDS011;9531;52.030;4.380;2022-08-18T08:23:07;0.85;;;0.50;;
18806;SDS011;9531;52.030;4.380;2022-08-18T08:25:43;1.65;;;0.65;;
18806;SDS011;9531;52.030;4.380;2022-08-18T08:28:19;0.63;;;0.63;;
18806;SDS011;9531;52.030;4.380;2022-08-18T08:31:03;0.63;;;0.63;;
18806;SDS011;9531;52.030;4.380;2022-08-18T08:33:35;0.52;;;0.52;;
18806;SDS011;9531;52.030;4.380;2022-08-18T08:36:06;1.23;;;0.60;;
18806;SDS011;9531;52.030;4.380;2022-08-18T08:38:40;1.13;;;0.60;;
18806;SDS011;9531;52.030;4.380;2022-08-18T08:41:12;0.57;;;0.57;;
18806;SDS011;9531;52.030;4.380;2022-08-18T08:43:44;0.47;;;0.47;;
18806;SDS011;9531;52.030;4.380;2022-08-18T08:46:20;1.50;;;0.50;;
18806;SDS011;9531;52.030;4.380;2022-08-18T08:48:51;0.40;;;0.40;;
18806;SDS011;9531;52.030;4.380;2022-08-18T08:51:27;0.60;;;0.52;;
18806;SDS011;9531;52.030;4.380;2022-08-18T08:54:01;0.45;;;0.40;;
18806;SDS011;9531;52.030;4.380;2022-08-18T08:56:33;1.00;;;0.63;;
18806;SDS011;9531;52.030;4.380;2022-08-18T08:59:06;1.58;;;0.60;;
18806;SDS011;9531;52.030;4.380;2022-08-18T09:01:38;0.38;;;0.38;;
18806;SDS011;9531;52.030;4.380;2022-08-18T09:04:15;0.52;;;0.40;;
18806;SDS011;9531;52.030;4.380;2022-08-18T09:06:51;0.57;;;0.50;;
18806;SDS011;9531;52.030;4.380;2022-08-18T09:09:33;0.95;;;0.55;;
18806;SDS011;9531;52.030;4.380;2022-08-18T09:12:21;1.58;;;0.52;;
18806;SDS011;9531;52.030;4.380;2022-08-18T09:14:59;0.35;;;0.30;;
18806;SDS011;9531;52.030;4.380;2022-08-18T09:17:47;0.88;;;0.50;;
18806;SDS011;9531;52.030;4.380;2022-08-18T09:20:33;0.38;;;0.35;;
18806;SDS011;9531;52.030;4.380;2022-08-18T09:23:15;0.63;;;0.50;;
18806;SDS011;9531;52.030;4.380;2022-08-18T09:25:46;0.77;;;0.30;;
18806;SDS011;9531;52.030;4.380;2022-08-18T09:28:17;0.30;;;0.30;;
18806;SDS011;9531;52.030;4.380;2022-08-18T09:30:51;2.53;;;0.70;;
18806;SDS011;9531;52.030;4.380;2022-08-18T09:33:54;0.60;;;0.43;;
18806;SDS011;9531;52.030;4.380;2022-08-18T09:36:43;0.40;;;0.38;;
18806;SDS011;9531;52.030;4.380;2022-08-18T09:39:21;0.13;;;0.13;;
18806;SDS011;9531;52.030;4.380;2022-08-18T09:42:12;0.17;;;0.17;;
18806;SDS011;9531;52.030;4.380;2022-08-18T09:50:33;1.85;;;0.45;;
18806;SDS011;9531;52.030;4.380;2022-08-18T09:53:14;0.60;;;0.40;;
18806;SDS011;9531;52.030;4.380;2022-08-18T09:55:57;0.98;;;0.50;;
18806;SDS011;9531;52.030;4.380;2022-08-18T10:01:37;0.32;;;0.30;;
18806;SDS011;9531;52.030;4.380;2022-08-18T10:07:14;0.60;;;0.30;;
18806;SDS011;9531;52.030;4.380;2022-08-18T10:09:52;0.60;;;0.40;;
18806;SDS011;9531;52.030;4.380;2022-08-18T10:12:43;0.73;;;0.43;;
18806;SDS011;9531;52.030;4.380;2022-08-18T10:21:10;3.80;;;0.60;;
18806;SDS011;9531;52.030;4.380;2022-08-18T10:23:52;0.65;;;0.45;;
18806;SDS011;9531;52.030;4.380;2022-08-18T10:29:46;1.55;;;0.57;;
18806;SDS011;9531;52.030;4.380;2022-08-18T10:32:21;0.90;;;0.60;;
18806;SDS011;9531;52.030;4.380;2022-08-18T10:41:18;0.98;;;0.43;;
18806;SDS011;9531;52.030;4.380;2022-08-18T10:43:48;1.00;;;0.70;;
18806;SDS011;9531;52.030;4.380;2022-08-18T10:46:23;1.65;;;0.70;;
18806;SDS011;9531;52.030;4.380;2022-08-18T10:49:06;1.10;;;0.60;;
18806;SDS011;9531;52.030;4.380;2022-08-18T10:51:52;0.57;;;0.52;;
18806;SDS011;9531;52.030;4.380;2022-08-18T10:54:32;1.20;;;0.90;;
18806;SDS011;9531;52.030;4.380;2022-08-18T10:57:14;0.93;;;0.55;;
18806;SDS011;9531;52.030;4.380;2022-08-18T10:59:50;1.02;;;0.63;;
18806;SDS011;9531;52.030;4.380;2022-08-18T11:02:30;1.25;;;0.65;;
18806;SDS011;9531;52.030;4.380;2022-08-18T11:05:09;0.68;;;0.55;;
18806;SDS011;9531;52.030;4.380;2022-08-18T11:07:39;0.77;;;0.55;;
18806;SDS011;9531;52.030;4.380;2022-08-18T11:10:15;0.60;;;0.60;;
18806;SDS011;9531;52.030;4.380;2022-08-18T11:12:50;0.60;;;0.55;;
18806;SDS011;9531;52.030;4.380;2022-08-18T11:15:26;1.10;;;0.70;;
18806;SDS011;9531;52.030;4.380;2022-08-18T11:18:08;0.45;;;0.45;;
18806;SDS011;9531;52.030;4.380;2022-08-18T11:20:44;0.40;;;0.40;;
18806;SDS011;9531;52.030;4.380;2022-08-18T11:23:13;1.75;;;0.65;;
18806;SDS011;9531;52.030;4.380;2022-08-18T11:25:42;0.70;;;0.60;;
18806;SDS011;9531;52.030;4.380;2022-08-18T11:28:15;0.80;;;0.60;;
18806;SDS011;9531;52.030;4.380;2022-08-18T11:30:44;0.65;;;0.45;;
18806;SDS011;9531;52.030;4.380;2022-08-18T11:33:16;0.98;;;0.65;;
18806;SDS011;9531;52.030;4.380;2022-08-18T11:35:45;0.88;;;0.70;;
18806;SDS011;9531;52.030;4.380;2022-08-18T11:38:14;1.13;;;0.70;;
18806;SDS011;9531;52.030;4.380;2022-08-18T11:40:43;1.27;;;0.60;;
18806;SDS011;9531;52.030;4.380;2022-08-18T11:43:13;1.10;;;0.68;;
18806;SDS011;9531;52.030;4.380;2022-08-18T11:45:49;1.23;;;0.52;;
18806;SDS011;9531;52.030;4.380;2022-08-18T11:48:18;0.68;;;0.68;;
18806;SDS011;9531;52.030;4.380;2022-08-18T11:50:58;1.20;;;0.55;;
18806;SDS011;9531;52.030;4.380;2022-08-18T11:53:36;0.80;;;0.70;;
18806;SDS011;9531;52.030;4.380;2022-08-18T11:56:14;0.95;;;0.63;;
18806;SDS011;9531;52.030;4.380;2022-08-18T11:58:50;0.90;;;0.50;;
18806;SDS011;9531;52.030;4.380;2022-08-18T12:01:30;1.60;;;0.80;;
18806;SDS011;9531;52.030;4.380;2022-08-18T12:04:13;4.30;;;0.70;;
18806;SDS011;9531;52.030;4.380;2022-08-18T12:06:53;0.90;;;0.60;;
18806;SDS011;9531;52.030;4.380;2022-08-18T12:09:30;0.52;;;0.40;;
18806;SDS011;9531;52.030;4.380;2022-08-18T12:12:02;0.65;;;0.50;;
18806;SDS011;9531;52.030;4.380;2022-08-18T12:14:49;0.50;;;0.50;;
18806;SDS011;9531;52.030;4.380;2022-08-18T12:17:19;0.75;;;0.50;;
18806;SDS011;9531;52.030;4.380;2022-08-18T12:19:46;0.60;;;0.52;;
18806;SDS011;9531;52.030;4.380;2022-08-18T12:22:14;0.60;;;0.60;;
18806;SDS011;9531;52.030;4.380;2022-08-18T12:24:43;0.43;;;0.35;;
18806;SDS011;9531;52.030;4.380;2022-08-18T12:27:11;0.40;;;0.40;;
18806;SDS011;9531;52.030;4.380;2022-08-18T12:29:41;0.52;;;0.50;;
18806;SDS011;9531;52.030;4.380;2022-08-18T12:32:08;0.57;;;0.40;;
18806;SDS011;9531;52.030;4.380;2022-08-18T12:34:36;0.95;;;0.38;;
18806;SDS011;9531;52.030;4.380;2022-08-18T12:37:03;0.77;;;0.60;;
18806;SDS011;9531;52.030;4.380;2022-08-18T12:39:35;1.08;;;0.50;;
18806;SDS011;9531;52.030;4.380;2022-08-18T12:42:02;0.43;;;0.43;;
18806;SDS011;9531;52.030;4.380;2022-08-18T12:44:29;0.60;;;0.50;;
18806;SDS011;9531;52.030;4.380;2022-08-18T12:46:58;1.17;;;0.88;;
18806;SDS011;9531;52.030;4.380;2022-08-18T12:49:26;0.40;;;0.40;;
18806;SDS011;9531;52.030;4.380;2022-08-18T12:51:53;1.25;;;0.75;;
18806;SDS011;9531;52.030;4.380;2022-08-18T12:54:20;0.90;;;0.60;;
18806;SDS011;9531;52.030;4.380;2022-08-18T12:56:48;0.40;;;0.40;;
18806;SDS011;9531;52.030;4.380;2022-08-18T12:59:18;0.77;;;0.47;;
18806;SDS011;9531;52.030;4.380;2022-08-18T13:01:45;0.60;;;0.45;;
18806;SDS011;9531;52.030;4.380;2022-08-18T13:04:13;0.40;;;0.40;;
18806;SDS011;9531;52.030;4.380;2022-08-18T13:06:43;0.50;;;0.50;;
18806;SDS011;9531;52.030;4.380;2022-08-18T13:09:12;0.82;;;0.60;;
18806;SDS011;9531;52.030;4.380;2022-08-18T13:11:39;1.08;;;0.57;;
18806;SDS011;9531;52.030;4.380;2022-08-18T13:14:06;1.50;;;0.70;;
18806;SDS011;9531;52.030;4.380;2022-08-18T13:16:34;1.40;;;0.70;;
18806;SDS011;9531;52.030;4.380;2022-08-18T13:19:04;0.50;;;0.50;;
18806;SDS011;9531;52.030;4.380;2022-08-18T13:21:32;1.45;;;0.68;;
18806;SDS011;9531;52.030;4.380;2022-08-18T13:23:59;1.63;;;0.98;;
18806;SDS011;9531;52.030;4.380;2022-08-18T13:26:28;1.02;;;0.60;;
18806;SDS011;9531;52.030;4.380;2022-08-18T13:28:57;0.60;;;0.60;;
18806;SDS011;9531;52.030;4.380;2022-08-18T13:31:24;0.40;;;0.40;;
18806;SDS011;9531;52.030;4.380;2022-08-18T13:33:51;0.70;;;0.70;;
18806;SDS011;9531;52.030;4.380;2022-08-18T13:36:19;0.82;;;0.60;;
18806;SDS011;9531;52.030;4.380;2022-08-18T13:38:47;1.92;;;0.63;;
18806;SDS011;9531;52.030;4.380;2022-08-18T13:41:16;1.25;;;0.50;;
18806;SDS011;9531;52.030;4.380;2022-08-18T13:43:43;0.60;;;0.57;;
18806;SDS011;9531;52.030;4.380;2022-08-18T13:46:11;0.57;;;0.57;;
18806;SDS011;9531;52.030;4.380;2022-08-18T13:48:39;0.43;;;0.43;;
18806;SDS011;9531;52.030;4.380;2022-08-18T13:51:07;0.65;;;0.43;;
18806;SDS011;9531;52.030;4.380;2022-08-18T13:53:36;0.75;;;0.40;;
18806;SDS011;9531;52.030;4.380;2022-08-18T13:56:06;0.47;;;0.47;;
18806;SDS011;9531;52.030;4.380;2022-08-18T13:58:33;3.00;;;0.70;;
18806;SDS011;9531;52.030;4.380;2022-08-18T14:01:01;0.50;;;0.40;;
18806;SDS011;9531;52.030;4.380;2022-08-18T14:03:31;0.70;;;0.52;;
18806;SDS011;9531;52.030;4.380;2022-08-18T14:05:59;0.65;;;0.55;;
18806;SDS011;9531;52.030;4.380;2022-08-18T14:08:27;1.23;;;0.70;;
18806;SDS011;9531;52.030;4.380;2022-08-18T14:10:55;0.45;;;0.45;;
18806;SDS011;9531;52.030;4.380;2022-08-18T14:13:26;0.73;;;0.55;;
18806;SDS011;9531;52.030;4.380;2022-08-18T14:15:55;1.40;;;1.00;;
18806;SDS011;9531;52.030;4.380;2022-08-18T14:18:23;0.70;;;0.47;;
18806;SDS011;9531;52.030;4.380;2022-08-18T14:20:51;0.70;;;0.52;;
18806;SDS011;9531;52.030;4.380;2022-08-18T14:23:36;1.08;;;0.63;;
18806;SDS011;9531;52.030;4.380;2022-08-18T14:26:20;1.17;;;0.73;;
18806;SDS011;9531;52.030;4.380;2022-08-18T14:29:06;0.40;;;0.40;;
18806;SDS011;9531;52.030;4.380;2022-08-18T14:31:35;1.02;;;0.65;;
18806;SDS011;9531;52.030;4.380;2022-08-18T14:34:02;0.50;;;0.50;;
18806;SDS011;9531;52.030;4.380;2022-08-18T14:36:29;1.80;;;0.88;;
18806;SDS011;9531;52.030;4.380;2022-08-18T14:38:57;0.70;;;0.70;;
18806;SDS011;9531;52.030;4.380;2022-08-18T14:41:24;1.35;;;0.60;;
18806;SDS011;9531;52.030;4.380;2022-08-18T14:43:51;1.38;;;0.50;;
18806;SDS011;9531;52.030;4.380;2022-08-18T14:46:21;0.75;;;0.65;;
18806;SDS011;9531;52.030;4.380;2022-08-18T14:48:49;1.15;;;0.75;;
18806;SDS011;9531;52.030;4.380;2022-08-18T14:51:16;0.93;;;0.60;;
18806;SDS011;9531;52.030;4.380;2022-08-18T14:53:43;1.65;;;0.75;;
18806;SDS011;9531;52.030;4.380;2022-08-18T14:56:10;0.63;;;0.63;;
18806;SDS011;9531;52.030;4.380;2022-08-18T14:58:38;1.13;;;0.70;;
18806;SDS011;9531;52.030;4.380;2022-08-18T15:01:06;0.73;;;0.65;;
18806;SDS011;9531;52.030;4.380;2022-08-18T15:03:37;1.05;;;0.57;;
18806;SDS011;9531;52.030;4.380;2022-08-18T15:06:05;1.77;;;0.65;;
18806;SDS011;9531;52.030;4.380;2022-08-18T15:08:35;1.23;;;0.60;;
18806;SDS011;9531;52.030;4.380;2022-08-18T15:11:04;0.63;;;0.50;;
18806;SDS011;9531;52.030;4.380;2022-08-18T15:13:31;1.75;;;0.60;;
18806;SDS011;9531;52.030;4.380;2022-08-18T15:15:59;1.35;;;0.77;;
18806;SDS011;9531;52.030;4.380;2022-08-18T15:18:26;0.57;;;0.55;;
18806;SDS011;9531;52.030;4.380;2022-08-18T15:20:55;0.52;;;0.43;;
18806;SDS011;9531;52.030;4.380;2022-08-18T15:23:39;1.85;;;0.80;;
18806;SDS011;9531;52.030;4.380;2022-08-18T15:26:32;1.73;;;0.65;;
18806;SDS011;9531;52.030;4.380;2022-08-18T15:28:59;2.92;;;0.65;;
18806;SDS011;9531;52.030;4.380;2022-08-18T15:31:26;0.80;;;0.60;;
18806;SDS011;9531;52.030;4.380;2022-08-18T15:33:53;0.82;;;0.60;;
18806;SDS011;9531;52.030;4.380;2022-08-18T15:36:22;2.10;;;0.80;;
18806;SDS011;9531;52.030;4.380;2022-08-18T15:38:48;1.23;;;0.70;;
18806;SDS011;9531;52.030;4.380;2022-08-18T15:41:25;0.70;;;0.47;;
18806;SDS011;9531;52.030;4.380;2022-08-18T15:43:55;1.25;;;0.75;;
18806;SDS011;9531;52.030;4.380;2022-08-18T15:46:22;2.92;;;1.20;;
18806;SDS011;9531;52.030;4.380;2022-08-18T15:48:49;1.42;;;0.80;;
18806;SDS011;9531;52.030;4.380;2022-08-18T15:51:17;2.13;;;0.90;;
18806;SDS011;9531;52.030;4.380;2022-08-18T15:53:45;2.70;;;0.93;;
18806;SDS011;9531;52.030;4.380;2022-08-18T15:56:13;0.75;;;0.75;;
18806;SDS011;9531;52.030;4.380;2022-08-18T15:58:41;1.48;;;0.80;;
18806;SDS011;9531;52.030;4.380;2022-08-18T16:01:10;1.10;;;0.80;;